Time;durP1;ratioP1;P1;durP2;ratioP2;P2;SDS_P1;SDS_P2;PMS_P1;PMS_P2;Temp;Humidity;BMP_temperature;BMP_pressure;BME280_temperature;BME280_humidity;BME280_pressure;Samples;Min_cycle;Max_cycle;Signal;HPM_P1;HPM_P2
2024/01/11 00:01:46;;;;;;;33.08;12.77;;;;;;;-3.64;67.98;99274.56;5346275;26;20083;-82
2024/01/11 00:04:13;;;;;;;32.65;12.05;;;;;;;-3.91;69.09;99275.38;5326124;26;20060;-82
2024/01/11 00:06:42;;;;;;;30.52;11.75;;;;;;;-3.83;69.59;99279.03;5346103;26;20396;-82
2024/01/11 00:09:09;;;;;;;28.67;11.45;;;;;;;-4.31;70.87;99272.25;5346235;26;20048;-82
2024/01/11 00:11:36;;;;;;;26.00;10.73;;;;;;;-3.98;70.32;99270.91;5345771;26;20388;-82
2024/01/11 00:14:03;;;;;;;29.52;11.75;;;;;;;-3.69;69.49;99266.00;5346233;26;20060;-82
2024/01/11 00:16:30;;;;;;;38.15;13.38;;;;;;;-4.10;70.87;99273.88;5345622;26;20068;-82
2024/01/11 00:18:57;;;;;;;30.25;12.15;;;;;;;-3.70;71.01;99256.72;5345777;26;20057;-82
2024/01/11 00:21:24;;;;;;;32.20;12.65;;;;;;;-3.14;68.75;99258.53;5346225;26;20048;-83
2024/01/11 00:23:51;;;;;;;35.00;13.52;;;;;;;-4.17;72.39;99263.50;5345827;26;20064;-82
2024/01/11 00:26:18;;;;;;;40.30;14.02;;;;;;;-4.09;75.68;99257.09;5346038;26;20113;-82
2024/01/11 00:28:45;;;;;;;37.05;15.52;;;;;;;-3.59;75.70;99250.38;5346161;26;20044;-82
2024/01/11 00:31:12;;;;;;;36.33;14.52;;;;;;;-3.46;76.01;99249.94;5325957;26;20061;-82
2024/01/11 00:33:39;;;;;;;40.15;16.70;;;;;;;-3.07;77.08;99260.44;5346165;26;20143;-82
2024/01/11 00:36:06;;;;;;;41.50;15.27;;;;;;;-3.13;78.36;99256.84;5345904;26;20084;-82
2024/01/11 00:38:34;;;;;;;38.53;14.93;;;;;;;-2.49;76.45;99246.13;5345718;26;20056;-82
2024/01/11 00:41:01;;;;;;;49.35;18.08;;;;;;;-2.31;74.50;99246.63;5345784;26;20048;-82
2024/01/11 00:43:28;;;;;;;34.10;14.87;;;;;;;-2.40;72.07;99251.44;5345898;26;20116;-82
2024/01/11 00:45:55;;;;;;;31.95;13.52;;;;;;;-2.52;70.54;99251.09;5345409;26;20052;-82
2024/01/11 00:48:22;;;;;;;;;;;;;;;-2.87;71.42;99253.47;5346312;26;20053;-82
2024/01/11 00:50:49;;;;;;;38.20;15.37;;;;;;;-3.61;72.23;99242.75;5346123;26;19962;-82
2024/01/11 00:53:16;;;;;;;29.25;12.95;;;;;;;-3.48;72.62;99246.53;5345716;26;20056;-82
2024/01/11 00:55:43;;;;;;;30.02;12.05;;;;;;;-3.05;70.03;99251.22;5345319;26;20375;-82
2024/01/11 00:58:10;;;;;;;29.58;12.35;;;;;;;-3.38;70.54;99243.47;5345952;26;20096;-82
2024/01/11 01:00:37;;;;;;;31.67;12.50;;;;;;;-3.79;70.69;99248.03;5345397;26;20053;-82
2024/01/11 01:03:04;;;;;;;28.08;10.68;;;;;;;-3.57;69.06;99246.22;5326216;26;20068;-82
2024/01/11 01:05:31;;;;;;;;;;;;;;;-3.42;69.27;99248.38;5325923;26;20064;-82
2024/01/11 01:07:58;;;;;;;30.93;11.63;;;;;;;-3.76;69.91;99237.19;5345973;26;19975;-82
2024/01/11 01:10:25;;;;;;;28.38;10.43;;;;;;;-3.92;70.06;99238.34;5345767;26;20048;-82
2024/01/11 01:12:52;;;;;;;30.35;11.40;;;;;;;-3.84;69.49;99225.97;5325732;26;20116;-82
2024/01/11 01:15:19;;;;;;;30.37;12.23;;;;;;;-4.07;70.48;99230.25;5345672;26;20064;-83
2024/01/11 01:17:45;;;;;;;27.23;10.93;;;;;;;-3.70;69.80;99242.44;5345688;26;20083;-82
2024/01/11 01:20:13;;;;;;;28.77;11.38;;;;;;;-3.43;68.17;99226.47;5345280;26;20078;-82
2024/01/11 01:22:40;;;;;;;36.08;11.85;;;;;;;-3.28;68.57;99235.38;5345750;26;20432;-82
2024/01/11 01:25:07;;;;;;;29.02;12.40;;;;;;;-3.34;69.24;99229.28;5325875;26;20103;-83
2024/01/11 01:27:34;;;;;;;31.62;12.05;;;;;;;-3.48;69.89;99233.91;5345209;26;20053;-82
2024/01/11 01:30:01;;;;;;;32.78;12.18;;;;;;;-3.37;68.33;99232.56;5345720;26;20119;-82
2024/01/11 01:32:28;;;;;;;34.35;12.90;;;;;;;-3.49;69.12;99234.72;5346516;26;20060;-82
2024/01/11 01:34:55;;;;;;;28.12;12.18;;;;;;;-3.29;68.36;99226.09;5346492;26;20095;-82
2024/01/11 01:37:22;;;;;;;32.40;12.00;;;;;;;-3.35;68.01;99230.09;5346661;26;20426;-83
2024/01/11 01:39:49;;;;;;;27.35;10.50;;;;;;;-3.84;69.13;99234.41;5346685;26;20076;-82
2024/01/11 01:42:15;;;;;;;29.80;10.70;;;;;;;-3.51;67.72;99226.22;5346349;26;20061;-82
2024/01/11 01:44:42;;;;;;;29.05;11.82;;;;;;;-3.90;68.69;99230.84;5346811;26;20076;-83
2024/01/11 01:47:11;;;;;;;28.67;11.55;;;;;;;-3.48;68.29;99228.84;5346440;26;20336;-82
2024/01/11 01:49:38;;;;;;;33.17;11.82;;;;;;;-3.64;67.98;99211.50;5346393;26;20052;-82
2024/01/11 01:52:06;;;;;;;29.15;12.30;;;;;;;-3.31;67.73;99220.12;5346768;26;20057;-82
2024/01/11 01:54:33;;;;;;;34.67;13.07;;;;;;;-3.74;69.11;99214.53;5346695;26;20056;-82
2024/01/11 01:57:02;;;;;;;33.10;12.50;;;;;;;-3.44;69.72;99214.66;5346151;26;20467;-82
2024/01/11 01:59:30;;;;;;;26.50;11.20;;;;;;;-3.75;69.97;99211.16;5346535;26;20410;-82
2024/01/11 02:01:58;;;;;;;30.35;12.80;;;;;;;-3.39;70.01;99213.16;5346369;26;20136;-82
2024/01/11 02:04:25;;;;;;;30.02;11.60;;;;;;;-3.25;67.43;99216.94;5346738;26;20057;-83
2024/01/11 02:06:53;;;;;;;28.45;12.18;;;;;;;-3.68;67.08;99209.69;5346445;26;20053;-83
2024/01/11 02:09:20;;;;;;;30.83;12.30;;;;;;;-4.04;67.72;99201.78;5326596;26;20048;-82
2024/01/11 02:11:48;;;;;;;27.90;10.45;;;;;;;-4.31;69.00;99201.72;5346664;26;20064;-82
2024/01/11 02:14:15;;;;;;;31.83;11.80;;;;;;;-3.97;68.81;99207.06;5346583;26;20081;-83
2024/01/11 02:16:42;;;;;;;27.08;10.63;;;;;;;-4.47;70.93;99203.69;5346010;26;20053;-82
2024/01/11 02:19:12;;;;;;;29.55;10.80;;;;;;;-4.08;70.14;99203.34;5346776;26;20043;-82
2024/01/11 02:21:43;;;;;;;29.40;9.73;;;;;;;-4.07;70.63;99198.34;5326815;26;20100;-82
2024/01/11 02:24:10;;;;;;;26.12;10.18;;;;;;;-4.37;71.47;99198.16;5346213;26;20437;-82
2024/01/11 02:26:37;;;;;;;26.02;10.40;;;;;;;-4.59;72.74;99192.31;5346350;26;20067;-82
2024/01/11 02:29:04;;;;;;;22.42;9.32;;;;;;;-4.11;70.30;99178.91;5327107;26;20097;-82
2024/01/11 02:31:31;;;;;;;29.12;11.07;;;;;;;-4.28;69.21;99185.03;5326537;26;20075;-82
2024/01/11 02:33:58;;;;;;;27.58;10.75;;;;;;;-4.56;70.72;99190.78;5326882;26;20126;-82
2024/01/11 02:36:26;;;;;;;28.70;10.65;;;;;;;-4.64;71.10;99187.13;5326599;26;20123;-82
2024/01/11 02:38:53;;;;;;;34.65;11.25;;;;;;;-4.33;70.33;99180.66;5346196;26;20450;-83
2024/01/11 02:41:20;;;;;;;27.33;11.02;;;;;;;-4.52;69.70;99172.44;5326740;26;20074;-82
2024/01/11 02:43:48;;;;;;;25.50;10.00;;;;;;;-4.42;69.20;99161.03;5326515;26;20074;-82
2024/01/11 02:46:15;;;;;;;32.50;10.98;;;;;;;-4.13;67.78;99160.34;5346350;26;20071;-82
2024/01/11 02:48:42;;;;;;;29.37;10.10;;;;;;;-4.89;70.72;99165.28;5346675;26;20086;-82
2024/01/11 02:51:09;;;;;;;26.83;9.77;;;;;;;-4.71;70.98;99165.91;5346264;26;20056;-82
2024/01/11 02:53:36;;;;;;;25.65;10.00;;;;;;;-4.50;69.74;99165.81;5346548;26;20052;-82
2024/01/11 02:56:03;;;;;;;25.52;10.00;;;;;;;-4.47;68.78;99165.91;5346106;26;20129;-82
2024/01/11 02:58:30;;;;;;;25.35;9.60;;;;;;;-4.39;68.78;99149.38;5346147;26;20485;-82
2024/01/11 03:00:57;;;;;;;24.98;10.05;;;;;;;-4.58;69.70;99151.22;5346572;26;20092;-83
2024/01/11 03:03:24;;;;;;;24.37;9.50;;;;;;;-4.20;68.20;99140.78;5346597;26;20071;-82
2024/01/11 03:05:51;;;;;;;24.90;9.75;;;;;;;-4.59;69.27;99144.47;5345925;26;20060;-82
2024/01/11 03:08:18;;;;;;;25.67;9.50;;;;;;;-4.84;69.62;99145.28;5346565;26;20041;-82
2024/01/11 03:10:45;;;;;;;25.48;9.95;;;;;;;-4.74;70.26;99154.87;5346298;26;20057;-82
2024/01/11 03:13:12;;;;;;;27.10;10.23;;;;;;;-4.44;69.14;99145.88;5346039;26;20411;-82
2024/01/11 03:15:39;;;;;;;26.55;9.98;;;;;;;-4.32;68.80;99137.88;5346352;26;20106;-82
2024/01/11 03:18:06;;;;;;;28.00;9.48;;;;;;;-4.53;69.42;99134.63;5346570;26;20323;-82
2024/01/11 03:20:33;;;;;;;29.60;11.43;;;;;;;-4.31;68.71;99131.16;5345925;26;20060;-82
2024/01/11 03:23:00;;;;;;;25.17;10.60;;;;;;;-4.71;69.89;99130.66;5326685;26;20133;-82
2024/01/11 03:25:29;;;;;;;27.37;11.38;;;;;;;-4.18;68.24;99139.16;5346184;26;20067;-82
2024/01/11 03:27:57;;;;;;;28.90;10.07;;;;;;;-4.49;68.80;99123.84;5346159;26;20044;-82
2024/01/11 03:30:24;;;;;;;25.73;9.65;;;;;;;-4.42;69.10;99128.28;5326700;26;20069;-82
2024/01/11 03:32:51;;;;;;;26.85;9.70;;;;;;;-4.30;67.21;99125.31;5346049;26;20057;-82
2024/01/11 03:35:19;;;;;;;30.77;11.30;;;;;;;-4.44;68.36;99120.69;5346302;26;20063;-82
2024/01/11 03:37:46;;;;;;;28.33;10.23;;;;;;;-4.36;69.48;99113.34;5346313;26;20146;-82
2024/01/11 03:40:14;;;;;;;29.92;10.95;;;;;;;-4.55;71.00;99104.34;5345939;26;20109;-82
2024/01/11 03:42:41;;;;;;;33.75;12.37;;;;;;;-4.86;74.45;99102.44;5346407;26;20087;-82
2024/01/11 03:45:09;;;;;;;27.58;11.15;;;;;;;-4.64;74.84;99101.50;5346273;26;20414;-82
2024/01/11 03:47:35;;;;;;;30.05;11.73;;;;;;;-4.52;75.78;99101.06;5345867;26;20056;-82
2024/01/11 03:50:03;;;;;;;36.22;12.13;;;;;;;-4.82;78.93;99103.38;5346315;26;20115;-82
2024/01/11 03:52:30;;;;;;;32.35;11.85;;;;;;;-4.45;77.81;99101.34;5346478;26;20721;-82
2024/01/11 03:54:57;;;;;;;32.78;12.13;;;;;;;-4.31;76.75;99098.41;5345425;26;20063;-82
2024/01/11 03:57:24;;;;;;;30.23;11.95;;;;;;;-4.46;77.40;99092.06;5345828;26;20595;-82
2024/01/11 03:59:51;;;;;;;32.58;12.15;;;;;;;-4.67;77.45;99093.87;5346068;26;20070;-82
2024/01/11 04:02:18;;;;;;;30.02;11.60;;;;;;;-4.44;77.10;99085.41;5345836;26;20060;-82
2024/01/11 04:04:45;;;;;;;32.47;11.73;;;;;;;-4.20;76.32;99080.31;5346301;26;20048;-82
2024/01/11 04:07:12;;;;;;;35.33;13.20;;;;;;;-4.13;75.83;99081.38;5346019;26;20052;-82
2024/01/11 04:09:39;;;;;;;36.42;12.88;;;;;;;-4.07;75.54;99089.97;5346035;26;20057;-82
2024/01/11 04:12:06;;;;;;;34.83;13.55;;;;;;;-3.91;74.98;99088.78;5346258;26;20385;-82
2024/01/11 04:14:33;;;;;;;36.50;14.40;;;;;;;-3.98;74.93;99084.34;5346343;26;20063;-82
2024/01/11 04:17:00;;;;;;;40.03;13.57;;;;;;;-4.13;75.30;99081.38;5345424;26;20074;-82
2024/01/11 04:19:27;;;;;;;36.05;14.38;;;;;;;-4.62;79.07;99079.75;5346284;26;20115;-82
2024/01/11 04:21:54;;;;;;;37.75;14.00;;;;;;;-4.45;79.23;99080.31;5340367;26;153479;-82
2024/01/11 04:24:21;;;;;;;38.08;14.38;;;;;;;-4.91;80.46;99078.75;5346058;26;20063;-82
2024/01/11 04:26:47;;;;;;;42.28;14.80;;;;;;;-5.19;81.31;99068.53;5345964;26;20440;-82
2024/01/11 04:29:14;;;;;;;35.28;14.68;;;;;;;-4.88;81.92;99067.94;5345816;26;20105;-82
2024/01/11 04:31:41;;;;;;;38.63;14.18;;;;;;;-4.58;80.21;99073.16;5346111;26;20056;-83
2024/01/11 04:34:09;;;;;;;42.42;14.60;;;;;;;-4.63;79.86;99072.16;5346221;26;20081;-82
2024/01/11 04:36:39;;;;;;;36.53;13.82;;;;;;;-4.39;78.21;99068.78;5345403;26;20103;-82
2024/01/11 04:39:07;;;;;;;30.85;12.45;;;;;;;-3.98;76.16;99071.75;5346123;26;20060;-82
2024/01/11 04:41:36;;;;;;;36.33;13.60;;;;;;;-3.89;75.10;99066.16;5345983;26;20407;-82
2024/01/11 04:44:04;;;;;;;31.35;13.52;;;;;;;-4.01;75.14;99061.59;5326072;26;20411;-82
2024/01/11 04:46:30;;;;;;;34.72;13.38;;;;;;;-4.09;75.31;99066.38;5345627;26;20103;-82
2024/01/11 04:48:57;;;;;;;33.63;13.15;;;;;;;-3.96;74.19;99070.13;5345906;26;20056;-82
2024/01/11 04:51:24;;;;;;;32.50;12.65;;;;;;;-3.72;72.61;99072.56;5345533;26;20067;-82
2024/01/11 04:53:51;;;;;;;33.53;12.77;;;;;;;-3.74;71.01;99075.81;5345895;26;20048;-82
2024/01/11 04:56:18;;;;;;;37.70;14.75;;;;;;;-3.74;69.80;99068.25;5345502;26;20411;-82
2024/01/11 04:58:45;;;;;;;36.97;13.80;;;;;;;-3.83;69.25;99064.69;5325650;26;20359;-82
2024/01/11 05:01:14;;;;;;;30.37;12.50;;;;;;;-3.90;69.01;99055.19;5345792;26;20388;-82
2024/01/11 05:03:42;;;;;;;36.10;13.40;;;;;;;-4.13;69.38;99039.38;5345906;26;20053;-82
2024/01/11 05:06:15;;;;;;;45.95;13.13;;;;;;;-4.17;69.50;99042.59;5345968;26;20058;-82
2024/01/11 05:08:43;;;;;;;29.45;12.13;;;;;;;-4.70;71.40;99046.75;5346895;26;20070;-82
2024/01/11 05:11:18;;;;;;;30.65;11.50;;;;;;;-4.47;71.38;99047.50;5346339;26;20114;-82
2024/01/11 05:13:47;;;;;;;28.45;11.32;;;;;;;-4.48;72.36;99058.38;5346801;26;20048;-82
2024/01/11 05:16:22;;;;;;;26.23;10.35;;;;;;;-4.46;73.36;99061.84;5346639;26;20101;-82
2024/01/11 05:18:51;;;;;;;35.20;12.77;;;;;;;-4.11;73.78;99064.63;5326807;26;20392;-83
2024/01/11 05:21:18;;;;;;;33.03;13.10;;;;;;;-4.03;74.66;99063.22;5308823;26;20061;-82
2024/01/11 05:23:45;;;;;;;31.35;12.37;;;;;;;-3.69;72.89;99066.75;5346813;26;20419;-83
2024/01/11 05:26:13;;;;;;;30.55;12.88;;;;;;;-4.01;72.47;99060.72;5346199;26;20040;-83
2024/01/11 05:28:40;;;;;;;34.78;13.27;;;;;;;-3.90;71.57;99061.91;5346805;26;20071;-83
2024/01/11 05:31:09;;;;;;;34.08;12.63;;;;;;;-4.00;71.24;99058.25;5346817;26;20471;-83
2024/01/11 05:33:36;;;;;;;35.47;13.07;;;;;;;-4.47;71.57;99052.53;5346323;26;20429;-83
2024/01/11 05:36:04;;;;;;;32.80;12.80;;;;;;;-4.38;72.19;99067.97;5346611;26;20041;-82
2024/01/11 05:38:30;;;;;;;29.55;11.60;;;;;;;-4.34;71.75;99066.41;5346635;26;20114;-83
2024/01/11 05:40:57;;;;;;;31.08;11.00;;;;;;;-3.76;70.78;99072.41;5326511;26;20096;-82
2024/01/11 05:43:24;;;;;;;28.58;10.32;;;;;;;-3.57;69.03;99062.91;5346766;26;20453;-83
2024/01/11 05:45:52;;;;;;;27.25;10.55;;;;;;;-3.65;69.02;99066.03;5346372;26;20464;-83
2024/01/11 05:48:18;;;;;;;33.00;11.82;;;;;;;-3.91;70.52;99066.09;5346348;26;20071;-83
2024/01/11 05:50:45;;;;;;;28.75;11.25;;;;;;;-3.70;70.40;99054.94;5346780;26;20118;-83
2024/01/11 05:53:13;;;;;;;27.15;10.25;;;;;;;-4.25;71.88;99054.13;5346403;26;20063;-82
2024/01/11 05:55:40;;;;;;;27.77;10.55;;;;;;;-4.37;72.08;99043.63;5326623;26;20104;-83
2024/01/11 05:58:07;;;;;;;25.50;10.25;;;;;;;-4.34;71.71;99040.37;5346646;26;20075;-83
2024/01/11 06:00:34;;;;;;;26.05;9.82;;;;;;;-3.98;70.07;99053.25;5346195;26;20061;-82
2024/01/11 06:03:01;;;;;;;25.15;9.38;;;;;;;-4.28;72.16;99055.66;5346593;26;20400;-82
2024/01/11 06:05:28;;;;;;;21.75;8.77;;;;;;;-4.28;72.28;99048.09;5326729;26;20350;-82
2024/01/11 06:07:55;;;;;;;23.20;9.10;;;;;;;-4.38;74.07;99044.44;5346310;26;20419;-82
2024/01/11 06:10:21;;;;;;;23.85;8.30;;;;;;;-4.13;73.62;99044.41;5346628;26;20060;-82
2024/01/11 06:12:48;;;;;;;28.05;10.48;;;;;;;-4.24;75.71;99045.75;5346627;26;20396;-82
2024/01/11 06:15:15;;;;;;;27.55;10.35;;;;;;;-4.28;76.02;99051.47;5346203;26;20360;-82
2024/01/11 06:17:42;;;;;;;30.42;11.45;;;;;;;-4.21;75.82;99042.47;5346362;26;20091;-82
2024/01/11 06:20:10;;;;;;;26.25;9.90;;;;;;;-4.04;75.01;99043.84;5346606;26;20369;-83
2024/01/11 06:22:37;;;;;;;27.40;10.13;;;;;;;-3.71;73.81;99040.63;5346220;26;20063;-82
2024/01/11 06:25:04;;;;;;;25.65;9.60;;;;;;;-3.61;73.07;99046.00;5346773;26;20543;-82
2024/01/11 06:27:31;;;;;;;24.23;9.05;;;;;;;-3.67;73.63;99045.81;5346403;26;20120;-82
2024/01/11 06:29:58;;;;;;;23.95;9.90;;;;;;;-3.44;72.69;99043.09;5346191;26;20067;-81
2024/01/11 06:32:25;;;;;;;28.17;10.48;;;;;;;-3.56;73.18;99051.16;5346625;26;20048;-81
2024/01/11 06:34:52;;;;;;;26.73;10.45;;;;;;;-4.26;75.05;99054.91;5346647;26;20123;-81
2024/01/11 06:37:19;;;;;;;24.55;8.75;;;;;;;-4.61;77.84;99057.94;5345883;26;20114;-81
2024/01/11 06:39:46;;;;;;;29.35;11.12;;;;;;;-5.38;82.33;99059.47;5346732;26;20127;-81
2024/01/11 06:42:14;;;;;;;27.27;10.88;;;;;;;-5.66;86.46;99060.94;5347810;26;20040;-81
2024/01/11 06:44:41;;;;;;;24.30;10.02;;;;;;;-4.43;82.14;99059.41;5351526;26;20109;-80
2024/01/11 06:47:08;;;;;;;27.33;10.85;;;;;;;-4.56;79.93;99064.00;5349918;26;20104;-81
2024/01/11 06:49:38;;;;;;;27.80;10.57;;;;;;;-3.60;76.64;99065.34;5350069;26;20051;-82
2024/01/11 06:52:05;;;;;;;26.10;9.40;;;;;;;-3.34;74.51;99067.78;5359291;26;20064;-80
2024/01/11 06:54:33;;;;;;;28.33;10.80;;;;;;;-2.97;72.93;99062.09;5356347;26;20020;-81
2024/01/11 06:56:59;;;;;;;26.23;10.30;;;;;;;-3.25;71.63;99061.31;5356103;26;20036;-81
2024/01/11 06:59:26;;;;;;;;;;;;;;;-3.44;70.98;99064.13;5359977;26;20392;-82
2024/01/11 07:01:53;;;;;;;25.92;9.88;;;;;;;-4.22;72.34;99054.22;5335135;26;19959;-82
2024/01/11 07:04:20;;;;;;;28.77;12.05;;;;;;;-3.20;69.68;99054.72;5358964;26;20095;-83
2024/01/11 07:06:47;;;;;;;28.10;10.45;;;;;;;-2.85;69.10;99054.84;5360392;26;20060;-83
2024/01/11 07:09:16;;;;;;;30.10;11.65;;;;;;;-2.90;69.46;99053.84;5358627;26;20083;-84
2024/01/11 07:11:44;;;;;;;26.12;10.93;;;;;;;-2.94;69.44;99045.34;5348046;26;20032;-82
2024/01/11 07:14:11;;;;;;;30.50;11.32;;;;;;;-2.82;69.78;99049.00;5349244;26;20032;-81
2024/01/11 07:16:38;;;;;;;29.30;11.35;;;;;;;-3.03;74.29;99050.13;5348873;26;20060;-83
2024/01/11 07:19:05;;;;;;;;;;;;;;;-2.16;76.07;99046.44;5357248;26;20106;-83
2024/01/11 07:21:32;;;;;;;31.62;11.65;;;;;;;-1.17;70.22;99041.88;5357620;26;19964;-82
2024/01/11 07:23:59;;;;;;;27.33;10.77;;;;;;;-0.88;66.20;99034.81;5338495;26;20024;-83
2024/01/11 07:26:26;;;;;;;26.12;10.45;;;;;;;-0.43;62.92;99030.50;5358559;26;20100;-83
2024/01/11 07:28:57;;;;;;;26.58;11.35;;;;;;;0.10;60.14;99033.03;5351813;26;20192;-80
2024/01/11 07:31:24;;;;;;;27.87;11.40;;;;;;;0.48;58.14;99025.94;5353641;26;20179;-81
2024/01/11 07:33:51;;;;;;;24.15;10.85;;;;;;;1.28;56.23;99026.03;5353127;26;20029;-79
2024/01/11 07:36:18;;;;;;;29.52;11.95;;;;;;;2.10;53.33;99027.53;5352470;26;20076;-80
2024/01/11 07:39:05;;;;;;;;;;;;;;;3.11;51.38;99024.63;5311079;26;20032;-79
2024/01/11 07:41:44;;;;;;;26.98;10.82;;;;;;;4.27;48.63;99027.22;5337505;26;19960;-83
2024/01/11 07:44:16;;;;;;;26.37;9.90;;;;;;;5.17;45.84;98980.84;5330018;26;20048;-85
2024/01/11 07:46:43;;;;;;;25.50;10.00;;;;;;;5.95;44.58;99021.22;5346210;26;20084;-84
2024/01/11 07:49:20;;;;;;;22.45;10.27;;;;;;;6.51;43.36;99029.25;5349009;26;20084;-85
2024/01/11 07:51:48;;;;;;;21.15;9.77;;;;;;;6.25;42.94;99025.22;5333839;26;20063;-83
2024/01/11 07:54:15;;;;;;;23.77;9.52;;;;;;;5.51;44.23;99031.78;5349780;26;20828;-83
2024/01/11 07:56:42;;;;;;;21.98;9.55;;;;;;;5.52;44.59;99041.16;5350329;26;20040;-85
2024/01/11 07:59:13;;;;;;;23.23;9.65;;;;;;;5.22;45.38;99037.09;5352362;26;20121;-84
2024/01/11 08:01:40;;;;;;;23.33;10.27;;;;;;;5.11;45.82;99042.28;5348771;26;20035;-84
2024/01/11 08:04:07;;;;;;;21.60;9.82;;;;;;;4.18;48.28;99044.28;5347093;26;20323;-83
2024/01/11 08:06:34;;;;;;;19.25;9.18;;;;;;;3.83;50.40;99045.16;5345372;26;20118;-82
2024/01/11 08:09:04;;;;;;;22.35;9.38;;;;;;;3.67;50.90;99035.78;5348232;26;20396;-83
2024/01/11 08:11:32;;;;;;;19.77;9.15;;;;;;;3.52;51.30;99031.53;5351885;26;20083;-84
2024/01/11 08:14:05;;;;;;;21.83;9.52;;;;;;;3.60;51.69;99031.50;5331668;26;20063;-81
2024/01/11 08:16:33;;;;;;;22.40;9.65;;;;;;;3.29;52.68;99026.34;5346977;26;20057;-83
2024/01/11 08:19:00;;;;;;;22.13;9.80;;;;;;;3.64;52.94;99036.62;5349226;26;20072;-82
2024/01/11 08:21:28;;;;;;;20.90;9.38;;;;;;;4.22;51.13;99031.47;5348694;26;20062;-82
2024/01/11 08:23:55;;;;;;;23.08;9.20;;;;;;;3.82;50.60;99033.22;5351261;26;20052;-82
2024/01/11 08:26:29;;;;;;;20.92;9.52;;;;;;;3.96;50.76;99035.78;5347335;26;20060;-83
2024/01/11 08:28:57;;;;;;;22.45;9.65;;;;;;;4.20;50.47;99033.19;5331992;26;20032;-81
2024/01/11 08:31:24;;;;;;;22.70;9.27;;;;;;;3.80;50.63;99034.06;5357979;26;20020;-81
2024/01/11 08:33:51;;;;;;;19.35;8.90;;;;;;;3.87;50.69;99033.22;5287050;26;20026;-78
2024/01/11 08:36:19;;;;;;;22.75;9.63;;;;;;;3.42;51.25;99030.66;5314807;27;20073;-80
2024/01/11 08:38:45;;;;;;;21.95;9.32;;;;;;;3.59;50.74;99035.75;5325597;27;20091;-79
2024/01/11 08:41:13;;;;;;;20.42;9.77;;;;;;;3.74;51.35;99038.34;5328497;26;20060;-80
2024/01/11 08:43:39;;;;;;;22.05;9.05;;;;;;;3.95;50.37;99039.19;5329571;26;20128;-81
2024/01/11 08:46:06;;;;;;;;;;;;;;;3.78;51.35;99031.53;5330991;26;20052;-81
2024/01/11 08:48:33;;;;;;;21.62;8.55;;;;;;;3.90;50.55;99030.66;5332683;26;19947;-81
2024/01/11 08:51:00;;;;;;;23.17;9.07;;;;;;;3.65;51.89;99032.37;5335052;26;20021;-81
2024/01/11 08:53:27;;;;;;;18.95;7.90;;;;;;;3.97;50.97;99029.81;5334648;27;20045;-81
2024/01/11 08:55:54;;;;;;;19.80;7.90;;;;;;;3.77;50.25;99028.13;5329726;26;20122;-81
2024/01/11 08:58:21;;;;;;;18.23;8.95;;;;;;;3.57;50.90;99016.19;5330606;27;20060;-80
2024/01/11 09:00:48;;;;;;;;;;;;;;;3.69;51.08;99023.84;5329732;27;20076;-80
2024/01/11 09:03:16;;;;;;;19.25;8.18;;;;;;;3.51;50.49;99013.62;5329063;26;20004;-81
2024/01/11 09:08:36;;;;;;;16.98;6.53;;;;;;;3.25;51.92;99008.50;5306609;27;20442;-81
2024/01/11 09:11:03;;;;;;;15.70;6.57;;;;;;;3.54;51.09;99014.50;5310598;27;20067;-83
2024/01/11 09:13:30;;;;;;;16.50;6.93;;;;;;;3.45;51.31;99009.38;5307684;27;20093;-84
2024/01/11 09:15:57;;;;;;;;;;;;;;;3.52;50.81;99007.72;5311444;27;20127;-87
2024/01/11 09:18:24;;;;;;;20.40;6.65;;;;;;;3.74;50.49;99006.84;5327429;27;19972;-88
2024/01/11 09:20:51;;;;;;;14.30;5.78;;;;;;;3.67;50.53;99000.88;5328011;27;20399;-86
2024/01/11 09:23:18;;;;;;;15.68;6.37;;;;;;;3.87;51.38;99000.03;5325743;27;20396;-81
2024/01/11 09:25:45;;;;;;;17.25;6.82;;;;;;;3.68;50.48;99002.59;5325531;27;20060;-82
2024/01/11 09:28:12;;;;;;;14.90;6.25;;;;;;;4.24;49.42;98994.00;5327171;27;20135;-82
2024/01/11 09:30:39;;;;;;;16.85;5.87;;;;;;;4.11;50.39;99009.38;5305078;27;20053;-81
2024/01/11 09:33:06;;;;;;;14.70;5.90;;;;;;;3.82;48.95;99006.84;5324453;27;20488;-80
2024/01/11 09:35:33;;;;;;;13.32;5.35;;;;;;;4.21;49.14;98980.41;5324321;27;20371;-81
2024/01/11 09:38:00;;;;;;;13.48;5.32;;;;;;;3.93;48.42;98989.81;5324152;27;20072;-81
2024/01/11 09:40:28;;;;;;;14.45;5.60;;;;;;;4.27;48.68;98988.91;5324605;27;20059;-81
2024/01/11 09:42:55;;;;;;;14.35;5.50;;;;;;;3.93;49.50;98990.66;5324572;27;20517;-81
2024/01/11 09:45:22;;;;;;;14.95;5.57;;;;;;;4.00;48.99;98979.59;5324013;27;20060;-81
2024/01/11 09:47:50;;;;;;;14.35;5.53;;;;;;;4.38;48.35;98972.69;5324535;27;20387;-81
2024/01/11 09:50:17;;;;;;;15.55;5.65;;;;;;;4.55;48.79;98968.34;5324571;27;20417;-84
2024/01/11 09:52:48;;;;;;;15.10;6.10;;;;;;;4.97;47.84;98951.97;5323671;27;20055;-81
2024/01/11 09:55:16;;;;;;;13.75;5.78;;;;;;;5.00;48.30;98951.09;5324498;27;20067;-81
2024/01/11 09:57:48;;;;;;;14.45;5.95;;;;;;;5.04;48.62;98945.97;5324337;27;20060;-81
2024/01/11 10:00:23;;;;;;;14.98;6.03;;;;;;;5.15;48.37;98953.56;5304509;27;20094;-82
2024/01/11 10:02:50;;;;;;;18.27;6.37;;;;;;;5.24;47.46;98948.38;5324454;27;20045;-83
2024/01/11 10:05:17;;;;;;;14.10;6.40;;;;;;;4.89;48.40;98941.81;5324341;27;20418;-81
2024/01/11 10:07:45;;;;;;;16.95;6.05;;;;;;;5.03;49.35;98943.41;5323742;27;20060;-82
2024/01/11 10:10:15;;;;;;;15.63;6.57;;;;;;;5.61;46.99;98938.69;5324325;27;20063;-81
2024/01/11 10:12:42;;;;;;;16.42;6.35;;;;;;;5.88;46.71;98934.19;5324368;27;20100;-81
2024/01/11 10:15:10;;;;;;;14.30;5.93;;;;;;;5.38;47.90;98930.38;5324351;27;20126;-81
2024/01/11 10:17:46;;;;;;;14.82;5.90;;;;;;;4.97;48.22;98920.41;5325713;27;20073;-82
2024/01/11 10:20:14;;;;;;;13.18;5.93;;;;;;;5.66;46.96;98913.06;5305217;27;20059;-82
2024/01/11 10:22:42;;;;;;;14.13;5.95;;;;;;;5.83;46.89;98913.75;5324138;27;20433;-82
2024/01/11 10:25:13;;;;;;;15.00;5.95;;;;;;;5.96;46.68;98905.13;5324478;27;20667;-81
2024/01/11 10:27:50;;;;;;;14.27;6.43;;;;;;;5.49;46.71;98902.97;5325602;27;20111;-81
2024/01/11 10:30:17;;;;;;;;;;;;;;;5.97;46.46;98893.16;5326165;27;20027;-82
2024/01/11 10:32:45;;;;;;;15.70;6.15;;;;;;;5.89;46.61;98903.44;5324888;27;20312;-83
2024/01/11 10:35:18;;;;;;;15.70;5.97;;;;;;;6.26;45.90;98880.84;5327631;27;20076;-83
2024/01/11 10:37:49;;;;;;;15.35;6.72;;;;;;;5.86;47.81;98888.13;5328113;27;20069;-81
2024/01/11 10:40:16;;;;;;;15.25;6.45;;;;;;;6.06;46.10;98890.47;5330820;27;20052;-82
2024/01/11 10:42:45;;;;;;;16.42;6.90;;;;;;;5.99;47.25;98887.16;5306983;27;20384;-82
2024/01/11 10:45:18;;;;;;;15.00;6.43;;;;;;;5.61;48.07;98887.50;5329857;27;20021;-83
2024/01/11 10:47:55;;;;;;;16.55;7.40;;;;;;;5.84;46.42;98874.47;5327277;27;20084;-83
2024/01/11 10:50:24;;;;;;;17.48;7.20;;;;;;;5.63;47.58;98860.16;5328225;27;20021;-81
2024/01/11 10:53:14;;;;;;;17.08;7.18;;;;;;;5.41;48.44;98856.97;5304739;27;20049;-80
2024/01/11 10:55:42;;;;;;;19.58;7.50;;;;;;;5.61;48.10;98843.97;5304312;27;20065;-79
2024/01/11 10:58:10;;;;;;;16.17;7.25;;;;;;;6.00;48.04;98839.31;5324175;27;20114;-80
2024/01/11 11:00:37;;;;;;;15.52;6.37;;;;;;;6.08;46.81;98848.63;5326347;27;20049;-81
2024/01/11 11:03:06;;;;;;;17.73;6.97;;;;;;;6.04;46.22;98846.94;5305432;27;20573;-82
2024/01/11 11:05:37;;;;;;;17.10;7.22;;;;;;;5.76;47.00;98841.28;5338806;26;20040;-79
2024/01/11 11:08:07;;;;;;;17.50;7.43;;;;;;;5.58;46.82;98844.00;5323193;26;20029;-79
2024/01/11 11:10:35;;;;;;;16.87;6.80;;;;;;;5.88;47.60;98837.72;5340883;27;20029;-79
2024/01/11 11:13:02;;;;;;;17.73;6.78;;;;;;;6.04;46.59;98841.81;5341297;26;20021;-80
2024/01/11 11:15:32;;;;;;;16.92;6.75;;;;;;;6.34;46.32;98829.50;5321242;27;20029;-80
2024/01/11 11:18:00;;;;;;;15.05;6.55;;;;;;;6.07;45.07;98815.34;5335616;26;20053;-79
2024/01/11 11:20:28;;;;;;;16.25;7.18;;;;;;;6.04;45.19;98812.78;5335284;27;20048;-79
2024/01/11 11:23:09;;;;;;;13.98;5.55;;;;;;;5.89;46.50;98808.69;5320859;27;20029;-80
2024/01/11 11:25:38;;;;;;;14.77;5.45;;;;;;;6.02;43.75;98806.84;5320181;27;20024;-80
2024/01/11 11:28:06;;;;;;;14.93;6.20;;;;;;;6.09;42.96;98798.22;5339724;26;20116;-80
2024/01/11 11:30:38;;;;;;;13.98;5.50;;;;;;;6.30;43.54;98802.22;5335549;26;20428;-80
2024/01/11 11:33:31;;;;;;;12.52;5.22;;;;;;;6.58;41.46;98795.81;5336015;27;20045;-80